Time;durP1;ratioP1;P1;durP2;ratioP2;P2;SDS_P1;SDS_P2;PMS_P1;PMS_P2;Temp;Humidity;BMP_temperature;BMP_pressure;BME280_temperature;BME280_humidity;BME280_pressure;Samples;Min_cycle;Max_cycle;Signal;HPM_P1;HPM_P2
2022/07/02 00:00:01;;;;;;;2.92;1.25;;;19.80;86.40;;;;;;5093104;28;20132;-77
2022/07/02 00:02:27;;;;;;;2.72;1.20;;;19.90;86.50;;;;;;5093850;28;20024;-77
2022/07/02 00:05:02;;;;;;;2.05;1.02;;;19.90;86.30;;;;;;5097353;28;20475;-76
2022/07/02 00:07:28;;;;;;;3.78;1.05;;;19.90;86.20;;;;;;5097422;28;20056;-77
2022/07/02 00:09:56;;;;;;;3.25;1.60;;;19.90;86.20;;;;;;5097170;28;20093;-76
2022/07/02 00:12:27;;;;;;;3.92;1.77;;;19.90;86.20;;;;;;5097106;28;20111;-77
2022/07/02 00:14:56;;;;;;;3.92;1.30;;;19.90;86.30;;;;;;5097209;28;20086;-77
2022/07/02 00:17:22;;;;;;;3.45;1.30;;;19.90;86.40;;;;;;5097537;28;20102;-77
2022/07/02 00:19:50;;;;;;;2.38;1.15;;;19.90;86.40;;;;;;5096793;28;20107;-77
2022/07/02 00:22:17;;;;;;;3.13;1.33;;;19.90;86.40;;;;;;5097340;28;20051;-77
2022/07/02 00:24:43;;;;;;;5.07;1.83;;;19.90;86.40;;;;;;5097249;28;20028;-77
2022/07/02 00:27:11;;;;;;;3.40;1.40;;;19.80;86.20;;;;;;5096692;28;20042;-77
2022/07/02 00:29:40;;;;;;;5.15;1.42;;;19.80;86.30;;;;;;5097099;28;20081;-77
2022/07/02 00:32:07;;;;;;;3.83;1.23;;;19.80;86.40;;;;;;5097268;28;20582;-77
2022/07/02 00:34:35;;;;;;;4.60;1.40;;;19.70;86.40;;;;;;5096940;28;20047;-77
2022/07/02 00:37:02;;;;;;;2.92;1.05;;;19.80;87.00;;;;;;5097176;28;20022;-77
2022/07/02 00:39:28;;;;;;;4.00;1.33;;;19.80;86.30;;;;;;5096741;28;20030;-77
2022/07/02 00:41:54;;;;;;;2.97;1.10;;;19.80;86.10;;;;;;5096952;28;20457;-77
2022/07/02 00:44:22;;;;;;;4.90;1.35;;;19.80;86.10;;;;;;5096450;28;20391;-77
2022/07/02 00:46:48;;;;;;;3.03;1.38;;;19.80;86.00;;;;;;5096901;28;20512;-77
2022/07/02 00:49:14;;;;;;;3.85;1.27;;;19.80;86.00;;;;;;5096250;28;20052;-77
2022/07/02 00:51:40;;;;;;;2.75;0.93;;;19.80;86.00;;;;;;5096481;28;20463;-77
2022/07/02 00:54:05;;;;;;;3.05;1.40;;;19.80;86.00;;;;;;5096634;28;20027;-77
2022/07/02 00:56:32;;;;;;;2.17;1.20;;;19.80;86.00;;;;;;5096696;28;20027;-77
2022/07/02 00:58:58;;;;;;;5.38;1.42;;;19.80;86.00;;;;;;5096626;28;20027;-77
2022/07/02 01:01:23;;;;;;;3.00;1.33;;;19.80;86.00;;;;;;5096279;28;20024;-77
2022/07/02 01:03:52;;;;;;;3.80;1.20;;;19.80;86.00;;;;;;5096379;28;20024;-77
2022/07/02 01:06:17;;;;;;;4.18;1.65;;;19.80;86.10;;;;;;5096254;28;20028;-77
2022/07/02 01:11:32;;;;;;;2.72;1.13;;;19.80;86.70;;;;;;5096254;28;20035;-77
2022/07/02 01:13:58;;;;;;;3.67;1.13;;;19.70;86.10;;;;;;5095859;28;20036;-77
2022/07/02 01:16:24;;;;;;;2.53;1.40;;;19.70;86.10;;;;;;5095880;28;20095;-77
2022/07/02 01:18:51;;;;;;;1.95;1.30;;;19.70;86.20;;;;;;5096050;28;20115;-77
2022/07/02 01:21:17;;;;;;;1.70;0.65;;;19.70;86.30;;;;;;5096090;28;20135;-77
2022/07/02 01:23:43;;;;;;;5.20;1.52;;;19.70;86.20;;;;;;5096000;28;20458;-76
2022/07/02 01:26:08;;;;;;;3.63;1.02;;;19.70;86.10;;;;;;5095837;28;20020;-76
2022/07/02 01:28:34;;;;;;;2.55;0.98;;;19.70;86.40;;;;;;5095939;28;20115;-76
2022/07/02 01:30:59;;;;;;;3.58;1.45;;;19.70;86.50;;;;;;5095736;28;20455;-76
2022/07/02 01:33:25;;;;;;;2.53;1.00;;;19.70;86.40;;;;;;5095657;28;20032;-76
2022/07/02 01:35:51;;;;;;;1.85;1.02;;;19.70;86.40;;;;;;5095587;28;20036;-77
2022/07/02 01:38:16;;;;;;;2.75;0.85;;;19.70;86.40;;;;;;5095598;28;20028;-78
2022/07/02 01:40:42;;;;;;;1.67;0.80;;;19.70;86.50;;;;;;5095860;28;20047;-77
2022/07/02 01:43:07;;;;;;;4.28;1.20;;;19.70;86.60;;;;;;5095562;28;20161;-77
2022/07/02 01:45:33;;;;;;;1.55;0.80;;;19.70;86.60;;;;;;5095581;28;20103;-77
2022/07/02 01:47:59;;;;;;;3.03;0.80;;;19.70;86.50;;;;;;5095448;28;20027;-77
2022/07/02 01:50:24;;;;;;;3.97;1.40;;;19.70;86.60;;;;;;5094981;28;20052;-77
2022/07/02 01:52:51;;;;;;;1.88;0.82;;;19.70;86.70;;;;;;5095562;28;20478;-77
2022/07/02 01:55:17;;;;;;;6.50;1.20;;;19.70;86.60;;;;;;5095389;28;20036;-77
2022/07/02 01:57:43;;;;;;;4.00;1.30;;;19.70;86.70;;;;;;5095402;28;20119;-77
2022/07/02 02:00:11;;;;;;;3.08;1.60;;;19.70;86.50;;;;;;5095068;28;20455;-77
2022/07/02 02:02:37;;;;;;;3.92;1.27;;;19.70;86.40;;;;;;5095345;28;20040;-78
2022/07/02 02:05:03;;;;;;;1.83;1.20;;;19.70;86.30;;;;;;5095285;28;20024;-78
2022/07/02 02:07:30;;;;;;;2.00;1.08;;;19.60;86.20;;;;;;5094970;28;20472;-78
2022/07/02 02:09:55;;;;;;;2.22;1.25;;;19.60;86.20;;;;;;5095062;28;20026;-78
2022/07/02 02:12:22;;;;;;;3.05;1.13;;;19.60;86.40;;;;;;5094977;28;20023;-78
2022/07/02 02:14:47;;;;;;;5.07;2.10;;;19.50;86.50;;;;;;5094786;28;20124;-77
2022/07/02 02:17:13;;;;;;;1.73;1.05;;;19.60;86.50;;;;;;5095110;28;20040;-77
2022/07/02 02:19:39;;;;;;;3.40;1.25;;;19.50;86.50;;;;;;5094741;28;20494;-77
2022/07/02 02:22:05;;;;;;;3.83;1.70;;;19.50;86.70;;;;;;5094968;28;20012;-77
2022/07/02 02:24:31;;;;;;;1.70;0.73;;;19.50;86.70;;;;;;5094761;28;20463;-77
2022/07/02 02:26:57;;;;;;;3.08;0.80;;;19.50;86.80;;;;;;5093768;28;20028;-77
2022/07/02 02:29:23;;;;;;;4.45;1.65;;;19.50;86.90;;;;;;5094856;28;20032;-75
2022/07/02 02:31:48;;;;;;;3.40;1.27;;;19.50;86.90;;;;;;5094701;28;20195;-76
2022/07/02 02:34:14;;;;;;;2.42;1.35;;;19.50;86.90;;;;;;5094292;28;20460;-77
2022/07/02 02:36:40;;;;;;;2.10;0.90;;;19.50;87.40;;;;;;5094749;28;20028;-77
2022/07/02 02:39:05;;;;;;;3.10;1.45;;;19.50;86.90;;;;;;5094427;28;20421;-77
2022/07/02 02:41:31;;;;;;;1.30;0.77;;;19.40;86.80;;;;;;5094526;28;20110;-77
2022/07/02 02:43:56;;;;;;;4.93;1.58;;;19.40;87.00;;;;;;5094309;28;20054;-77
2022/07/02 02:46:22;;;;;;;2.50;1.10;;;19.40;86.90;;;;;;5094356;28;20028;-77
2022/07/02 02:48:48;;;;;;;3.80;1.70;;;19.40;87.00;;;;;;5094114;28;20036;-77
2022/07/02 02:51:15;;;;;;;5.22;2.28;;;19.30;86.90;;;;;;5094360;28;20074;-77
2022/07/02 02:53:42;;;;;;;2.38;1.45;;;19.30;86.70;;;;;;5094071;28;20020;-77
2022/07/02 02:56:09;;;;;;;4.43;1.38;;;19.20;87.20;;;;;;5094289;28;20028;-77
2022/07/02 02:58:35;;;;;;;2.63;1.23;;;19.10;87.30;;;;;;5094390;28;20016;-77
2022/07/02 03:01:00;;;;;;;6.68;1.90;;;19.20;87.30;;;;;;5094346;28;20027;-77
2022/07/02 03:03:26;;;;;;;4.60;1.60;;;19.20;87.30;;;;;;5094313;28;20513;-77
2022/07/02 03:05:52;;;;;;;3.65;2.08;;;19.10;87.40;;;;;;5093704;28;20383;-77
2022/07/02 03:08:18;;;;;;;4.07;1.80;;;19.10;87.50;;;;;;5093957;28;20035;-77
2022/07/02 03:10:43;;;;;;;4.25;1.83;;;19.10;87.70;;;;;;5094168;28;20025;-77
2022/07/02 03:13:09;;;;;;;4.50;2.28;;;19.10;87.60;;;;;;5093951;28;20497;-77
2022/07/02 03:15:35;;;;;;;1.73;0.93;;;19.10;87.50;;;;;;5093685;28;20039;-77
2022/07/02 03:18:00;;;;;;;3.90;1.58;;;19.10;87.70;;;;;;5094153;28;20020;-77
2022/07/02 03:20:26;;;;;;;3.22;1.50;;;19.10;87.90;;;;;;5093670;28;20024;-77
2022/07/02 03:22:52;;;;;;;4.03;1.65;;;19.10;87.90;;;;;;5094234;28;20035;-77
2022/07/02 03:25:18;;;;;;;5.32;2.35;;;19.00;87.70;;;;;;5093797;28;20020;-77
2022/07/02 03:27:43;;;;;;;3.83;1.77;;;18.90;88.00;;;;;;5093720;28;20058;-77
2022/07/02 03:30:09;;;;;;;4.38;1.95;;;18.90;88.30;;;;;;5093593;28;20035;-77
2022/07/02 03:32:35;;;;;;;3.90;1.58;;;18.90;88.10;;;;;;5093476;28;20028;-77
2022/07/02 03:35:02;;;;;;;2.33;1.17;;;18.90;88.20;;;;;;5093540;28;20055;-77
2022/07/02 03:37:28;;;;;;;2.03;1.17;;;18.90;88.30;;;;;;5093343;28;20455;-77
2022/07/02 03:39:55;;;;;;;4.78;2.03;;;19.00;88.40;;;;;;5094150;28;20034;-77
2022/07/02 03:42:21;;;;;;;2.20;1.08;;;19.00;88.40;;;;;;5093495;28;20044;-77
2022/07/02 03:44:47;;;;;;;2.50;1.40;;;19.00;88.40;;;;;;5093664;28;20027;-77
2022/07/02 03:47:13;;;;;;;1.48;1.20;;;19.10;88.60;;;;;;5093318;28;20024;-77
2022/07/02 03:49:38;;;;;;;3.47;1.50;;;19.10;88.40;;;;;;5093376;28;20046;-77
2022/07/02 03:52:04;;;;;;;2.80;1.65;;;19.10;88.40;;;;;;5093396;28;20372;-77
2022/07/02 03:54:30;;;;;;;6.80;2.03;;;19.20;88.30;;;;;;5093458;28;20043;-77
2022/07/02 03:56:55;;;;;;;8.15;2.45;;;19.20;87.90;;;;;;5093144;28;20020;-77
2022/07/02 03:59:21;;;;;;;3.88;1.48;;;19.10;87.40;;;;;;5093156;28;20024;-77
2022/07/02 04:01:47;;;;;;;4.07;1.55;;;19.10;87.70;;;;;;5093152;28;20028;-77
2022/07/02 04:04:12;;;;;;;5.97;1.90;;;19.10;87.70;;;;;;5093485;28;20020;-77
2022/07/02 04:06:38;;;;;;;3.53;1.50;;;19.10;87.80;;;;;;5093241;28;20020;-77
2022/07/02 04:09:04;;;;;;;5.25;1.95;;;19.10;87.60;;;;;;5093402;28;20049;-77
2022/07/02 04:11:29;;;;;;;2.95;1.58;;;19.00;87.30;;;;;;5093147;28;20020;-77
2022/07/02 04:13:55;;;;;;;2.30;1.23;;;19.00;87.30;;;;;;5093079;28;20035;-77
2022/07/02 04:16:20;;;;;;;4.35;1.42;;;19.00;87.50;;;;;;5093351;28;20036;-77
2022/07/02 04:18:46;;;;;;;5.47;2.05;;;19.00;87.80;;;;;;5093368;28;20097;-77
2022/07/02 04:21:12;;;;;;;5.05;2.00;;;19.00;88.30;;;;;;5092949;28;20020;-77
2022/07/02 04:23:37;;;;;;;4.40;1.98;;;19.00;87.50;;;;;;5093237;28;20070;-77
2022/07/02 04:26:04;;;;;;;5.55;2.00;;;19.00;87.20;;;;;;5093053;28;20382;-77
2022/07/02 04:28:30;;;;;;;7.00;2.50;;;18.90;86.80;;;;;;5093001;28;20025;-77
2022/07/02 04:30:56;;;;;;;5.43;2.30;;;18.80;86.30;;;;;;5092996;28;20103;-77
2022/07/02 04:33:21;;;;;;;6.30;2.17;;;18.70;86.20;;;;;;5093099;28;20349;-77
2022/07/02 04:35:47;;;;;;;2.33;1.25;;;18.60;86.50;;;;;;5092880;28;20036;-77
2022/07/02 04:38:12;;;;;;;3.67;1.73;;;18.60;87.00;;;;;;5093088;28;20077;-77
2022/07/02 04:40:38;;;;;;;4.95;1.70;;;18.70;87.30;;;;;;5092993;28;20036;-77
2022/07/02 04:43:04;;;;;;;4.95;2.35;;;18.70;87.50;;;;;;5092865;28;20367;-77
2022/07/02 04:45:29;;;;;;;4.15;1.70;;;18.70;87.60;;;;;;5092786;28;20149;-77
2022/07/02 04:47:55;;;;;;;3.45;2.03;;;18.80;87.70;;;;;;5092890;28;20035;-77
2022/07/02 04:50:20;;;;;;;4.18;2.55;;;18.80;87.70;;;;;;5094640;28;20048;-77
2022/07/02 04:52:48;;;;;;;3.88;1.85;;;18.80;87.60;;;;;;5096520;28;20032;-77
2022/07/02 04:55:14;;;;;;;5.22;2.00;;;18.90;87.70;;;;;;5096475;28;20391;-77
2022/07/02 04:57:39;;;;;;;4.25;2.30;;;18.90;87.70;;;;;;5096392;28;20020;-77
2022/07/02 05:00:06;;;;;;;4.13;1.73;;;18.80;87.80;;;;;;5096281;28;20034;-77
2022/07/02 05:02:31;;;;;;;6.85;2.00;;;18.80;88.50;;;;;;5096483;28;20107;-77
2022/07/02 05:04:57;;;;;;;4.30;2.20;;;18.70;87.80;;;;;;5096571;28;20055;-77
2022/07/02 05:07:23;;;;;;;9.63;3.38;;;18.70;87.70;;;;;;5096328;28;20030;-77
2022/07/02 05:09:48;;;;;;;4.40;2.05;;;18.60;87.60;;;;;;5096060;28;20024;-77
2022/07/02 05:12:14;;;;;;;4.80;2.00;;;18.50;87.50;;;;;;5096217;28;20031;-77
2022/07/02 05:14:39;;;;;;;5.95;2.08;;;18.50;87.20;;;;;;5095889;28;20552;-77
2022/07/02 05:17:05;;;;;;;3.92;1.52;;;18.50;87.20;;;;;;5096332;28;20028;-77
2022/07/02 05:19:30;;;;;;;4.93;1.90;;;18.50;87.00;;;;;;5095857;28;20020;-77
2022/07/02 05:21:56;;;;;;;3.63;1.80;;;18.40;86.90;;;;;;5095669;28;20024;-77
2022/07/02 05:24:21;;;;;;;4.13;1.70;;;18.40;87.00;;;;;;5096012;28;20058;-77
2022/07/02 05:26:47;;;;;;;5.95;1.80;;;18.50;87.20;;;;;;5095921;28;20020;-77
2022/07/02 05:29:13;;;;;;;4.07;1.77;;;18.40;86.80;;;;;;5095676;28;20066;-77
2022/07/02 05:31:38;;;;;;;4.93;1.70;;;18.40;86.80;;;;;;5095853;28;20035;-77
2022/07/02 05:34:04;;;;;;;5.32;1.10;;;18.50;87.40;;;;;;5095857;28;20086;-77
2022/07/02 05:36:29;;;;;;;6.28;1.85;;;18.50;87.50;;;;;;5095737;28;20032;-77
2022/07/02 05:38:55;;;;;;;3.63;1.10;;;18.60;87.60;;;;;;5095918;28;20028;-77
2022/07/02 05:41:20;;;;;;;4.50;1.05;;;18.60;87.60;;;;;;5095849;28;20455;-77
2022/07/02 05:43:46;;;;;;;3.20;1.38;;;18.70;87.90;;;;;;5095568;28;20016;-77
2022/07/02 05:46:11;;;;;;;4.82;1.63;;;18.70;87.40;;;;;;5095706;28;20409;-77
2022/07/02 05:48:37;;;;;;;4.63;1.90;;;18.70;86.60;;;;;;5095546;28;20023;-77
2022/07/02 05:51:03;;;;;;;5.32;1.55;;;18.80;85.80;;;;;;5095588;28;20537;-77
2022/07/02 05:53:29;;;;;;;3.30;0.95;;;18.70;85.20;;;;;;5095243;28;20027;-77
2022/07/02 05:55:54;;;;;;;8.15;2.38;;;18.60;84.90;;;;;;5095281;28;20032;-77
2022/07/02 05:58:20;;;;;;;3.72;1.27;;;18.60;85.00;;;;;;5095239;28;20066;-77
2022/07/02 06:00:45;;;;;;;2.47;1.05;;;18.60;85.60;;;;;;5095303;28;20536;-76
2022/07/02 06:03:11;;;;;;;5.10;1.30;;;18.60;85.60;;;;;;5095440;28;20020;-76
2022/07/02 06:08:21;;;;;;;4.78;1.30;;;18.60;85.80;;;;;;5095168;28;20027;-77
2022/07/02 06:10:46;;;;;;;4.57;1.48;;;18.60;85.80;;;;;;5094940;28;20024;-77
2022/07/02 06:13:14;;;;;;;3.88;1.10;;;18.60;85.80;;;;;;5094932;28;20463;-77
2022/07/02 06:15:39;;;;;;;4.43;0.85;;;18.60;85.70;;;;;;5094812;28;20482;-77
2022/07/02 06:18:05;;;;;;;4.22;1.25;;;18.70;86.00;;;;;;5095070;28;20045;-77
2022/07/02 06:20:31;;;;;;;3.08;0.85;;;18.70;86.00;;;;;;5094905;28;20020;-77
2022/07/02 06:22:56;;;;;;;3.20;1.02;;;18.80;86.30;;;;;;5094818;28;20141;-77
2022/07/02 06:25:22;;;;;;;3.15;0.90;;;18.80;86.30;;;;;;5094939;28;20471;-77
2022/07/02 06:27:48;;;;;;;2.42;0.68;;;18.80;86.00;;;;;;5094710;28;20026;-77
2022/07/02 06:30:14;;;;;;;4.40;1.10;;;18.80;85.60;;;;;;5094880;28;20027;-77
2022/07/02 06:32:39;;;;;;;2.88;0.95;;;18.80;85.90;;;;;;5094555;28;20032;-77
2022/07/02 06:35:05;;;;;;;2.53;0.80;;;18.90;85.60;;;;;;5094607;28;20085;-77
2022/07/02 06:37:31;;;;;;;3.20;0.98;;;18.90;85.70;;;;;;5094492;28;20103;-77
2022/07/02 06:39:56;;;;;;;4.55;0.90;;;18.90;85.70;;;;;;5094708;28;20024;-76
2022/07/02 06:42:22;;;;;;;6.05;0.90;;;18.90;85.60;;;;;;5094067;28;20471;-77
2022/07/02 06:44:53;;;;;;;3.05;0.90;;;18.90;85.50;;;;;;5094522;28;20038;-77
2022/07/02 06:47:20;;;;;;;4.88;0.60;;;19.00;86.00;;;;;;5094328;28;20542;-77
2022/07/02 06:49:47;;;;;;;5.38;0.73;;;19.00;85.40;;;;;;5094207;28;20055;-77
2022/07/02 06:52:12;;;;;;;3.10;0.57;;;19.10;85.10;;;;;;5093848;28;20072;-77
2022/07/02 06:54:38;;;;;;;3.90;0.63;;;19.20;84.40;;;;;;5093909;28;20040;-77
2022/07/02 06:57:05;;;;;;;5.20;0.80;;;19.10;82.50;;;;;;5094102;28;20100;-76
2022/07/02 06:59:32;;;;;;;5.95;0.60;;;19.20;82.80;;;;;;5094412;28;20039;-77
2022/07/02 07:01:57;;;;;;;2.47;0.60;;;19.40;83.00;;;;;;5094130;28;20020;-76
2022/07/02 07:04:23;;;;;;;2.20;0.57;;;19.40;82.30;;;;;;5094114;28;20391;-76
2022/07/02 07:06:52;;;;;;;3.70;0.60;;;19.40;81.30;;;;;;5093883;28;20173;-77
2022/07/02 07:09:18;;;;;;;4.53;0.60;;;19.40;81.00;;;;;;5093820;28;20506;-77
2022/07/02 07:11:44;;;;;;;3.83;0.50;;;19.50;81.80;;;;;;5094056;28;20020;-77
2022/07/02 07:14:10;;;;;;;3.50;0.50;;;19.60;81.40;;;;;;5093656;28;20364;-77
2022/07/02 07:16:36;;;;;;;1.90;0.50;;;19.60;79.70;;;;;;5093935;28;20016;-77
2022/07/02 07:19:05;;;;;;;2.30;0.40;;;19.50;78.40;;;;;;5093728;28;20459;-77
2022/07/02 07:21:34;;;;;;;0.75;0.20;;;19.60;77.60;;;;;;5093979;28;20099;-77
2022/07/02 07:24:00;;;;;;;1.98;0.40;;;19.50;76.60;;;;;;5093664;28;20024;-77
2022/07/02 07:26:26;;;;;;;1.77;0.20;;;19.60;75.70;;;;;;5093832;28;20021;-76
2022/07/02 07:28:51;;;;;;;1.20;0.22;;;19.70;74.90;;;;;;5093564;28;20557;-76
2022/07/02 07:31:20;;;;;;;1.58;0.20;;;19.80;74.10;;;;;;5093580;28;20031;-76
2022/07/02 07:33:56;;;;;;;1.23;0.20;;;19.90;74.60;;;;;;5093512;28;20052;-76
2022/07/02 07:36:23;;;;;;;4.75;0.28;;;20.00;74.30;;;;;;5093443;28;20028;-76
2022/07/02 07:38:50;;;;;;;1.20;0.20;;;20.10;73.80;;;;;;5093703;28;20028;-76
2022/07/02 07:41:17;;;;;;;2.65;0.35;;;20.10;73.30;;;;;;5093095;28;20035;-76
2022/07/02 07:43:43;;;;;;;2.25;0.30;;;20.20;72.60;;;;;;5093372;28;20028;-76
2022/07/02 07:46:09;;;;;;;1.25;0.17;;;20.30;73.50;;;;;;5093418;28;20027;-76
2022/07/02 07:48:34;;;;;;;0.70;0.10;;;20.40;71.60;;;;;;5093442;28;20034;-76
2022/07/02 07:51:00;;;;;;;0.47;0.10;;;20.50;71.30;;;;;;5093383;28;20390;-76
2022/07/02 07:53:26;;;;;;;1.30;0.10;;;20.60;71.30;;;;;;5093222;28;20031;-76
2022/07/02 07:55:53;;;;;;;0.50;0.10;;;20.70;70.00;;;;;;5093223;28;20031;-76
2022/07/02 07:58:18;;;;;;;2.42;0.20;;;20.70;69.30;;;;;;5093256;28;20028;-76
2022/07/02 08:00:45;;;;;;;1.27;0.10;;;20.90;68.70;;;;;;5093270;28;20111;-76
2022/07/02 08:03:13;;;;;;;1.73;0.05;;;21.00;69.00;;;;;;5093235;28;20016;-76
2022/07/02 08:05:39;;;;;;;2.00;0.10;;;21.10;66.90;;;;;;5093363;28;20374;-76
2022/07/02 08:08:07;;;;;;;2.63;0.30;;;21.10;65.90;;;;;;5093470;28;20024;-76
2022/07/02 08:10:33;;;;;;;1.13;0.10;;;21.20;66.60;;;;;;5093211;28;20027;-76
2022/07/02 08:12:58;;;;;;;1.40;0.30;;;21.30;65.80;;;;;;5093136;28;20092;-76
2022/07/02 08:15:24;;;;;;;0.77;0.08;;;21.30;66.30;;;;;;5093325;28;20065;-76
2022/07/02 08:17:50;;;;;;;1.60;0.28;;;21.30;66.00;;;;;;5092906;28;20363;-76
2022/07/02 08:20:16;;;;;;;2.28;0.22;;;21.40;66.20;;;;;;5093333;28;20024;-76
2022/07/02 08:22:46;;;;;;;0.95;0.17;;;21.50;66.20;;;;;;5093246;28;20020;-76
2022/07/02 08:25:13;;;;;;;1.58;0.10;;;21.60;66.40;;;;;;5094920;28;20051;-76
2022/07/02 08:27:39;;;;;;;2.13;0.10;;;21.70;67.50;;;;;;5097178;28;20409;-76
2022/07/02 08:30:06;;;;;;;1.52;0.10;;;21.70;66.30;;;;;;5096680;28;20123;-76
2022/07/02 08:32:31;;;;;;;1.02;0.10;;;21.80;66.10;;;;;;5097131;28;20047;-76
2022/07/02 08:34:58;;;;;;;1.58;0.10;;;21.90;66.50;;;;;;5097105;28;20074;-76
2022/07/02 08:37:24;;;;;;;1.75;0.17;;;21.90;66.00;;;;;;5096896;28;20024;-76
2022/07/02 08:39:50;;;;;;;2.53;0.20;;;22.00;65.00;;;;;;5096583;28;20433;-76
2022/07/02 08:42:25;;;;;;;2.05;0.30;;;22.00;65.10;;;;;;5096981;28;20046;-76
2022/07/02 08:44:55;;;;;;;3.60;0.20;;;22.00;65.50;;;;;;5096615;28;20073;-77
2022/07/02 08:47:23;;;;;;;1.98;0.22;;;22.20;66.10;;;;;;5096449;28;20027;-76
2022/07/02 08:49:51;;;;;;;2.20;0.10;;;22.20;64.80;;;;;;5096615;28;20056;-76
2022/07/02 08:52:20;;;;;;;1.55;0.20;;;22.30;64.70;;;;;;5096746;28;20459;-76
2022/07/02 08:54:46;;;;;;;1.35;0.10;;;22.30;65.20;;;;;;5096307;28;20040;-76
2022/07/02 08:57:13;;;;;;;3.00;0.30;;;22.30;65.60;;;;;;5096218;28;20024;-76
2022/07/02 08:59:39;;;;;;;2.03;0.20;;;22.40;65.80;;;;;;5096161;28;20048;-76
2022/07/02 09:02:07;;;;;;;1.98;0.20;;;22.40;66.90;;;;;;5096272;28;20027;-76
2022/07/02 09:04:34;;;;;;;1.17;0.20;;;22.50;66.60;;;;;;5096447;28;20020;-77
2022/07/02 09:07:02;;;;;;;5.18;0.30;;;22.60;65.50;;;;;;5096121;28;20028;-76
2022/07/02 09:09:29;;;;;;;3.72;0.25;;;22.70;65.20;;;;;;5096377;28;20481;-76
2022/07/02 09:11:56;;;;;;;0.90;0.15;;;22.80;65.50;;;;;;5095572;28;20016;-76
2022/07/02 09:14:22;;;;;;;1.85;0.20;;;22.80;66.20;;;;;;5096069;28;20547;-76
2022/07/02 09:16:49;;;;;;;1.60;0.20;;;22.90;68.90;;;;;;5096252;28;20056;-77
2022/07/02 09:19:16;;;;;;;3.20;0.30;;;23.00;65.70;;;;;;5096007;28;20501;-76
2022/07/02 09:21:50;;;;;;;1.58;0.65;;;23.00;65.20;;;;;;5096226;28;20104;-76
2022/07/02 09:24:46;;;;;;;1.65;0.20;;;23.00;64.80;;;;;;5095575;28;20024;-77
2022/07/02 09:27:14;;;;;;;1.50;0.10;;;22.90;64.20;;;;;;5095309;28;20028;-77
2022/07/02 09:29:41;;;;;;;1.85;0.25;;;22.90;64.50;;;;;;5095840;28;20490;-76
2022/07/02 09:32:07;;;;;;;3.50;0.25;;;22.90;64.80;;;;;;5095974;28;20046;-76
2022/07/02 09:34:32;;;;;;;1.88;0.20;;;23.10;65.40;;;;;;5095621;28;20463;-76
2022/07/02 09:36:58;;;;;;;2.35;0.35;;;23.30;65.50;;;;;;5095236;28;20116;-76
2022/07/02 09:39:30;;;;;;;3.58;0.32;;;23.30;64.00;;;;;;5095855;28;20032;-77
2022/07/02 09:41:57;;;;;;;4.90;0.30;;;23.30;63.10;;;;;;5095382;28;20048;-76
2022/07/02 09:44:25;;;;;;;2.38;0.20;;;23.50;66.40;;;;;;5094435;28;20048;-76
2022/07/02 09:46:51;;;;;;;3.17;0.20;;;23.60;65.30;;;;;;5095374;28;20103;-77
2022/07/02 09:49:17;;;;;;;2.35;0.30;;;23.60;62.50;;;;;;5095387;28;20071;-77
2022/07/02 09:51:53;;;;;;;2.22;0.20;;;23.60;63.10;;;;;;5095526;28;20031;-76
2022/07/02 09:54:23;;;;;;;1.70;0.20;;;23.60;62.80;;;;;;5095231;28;20050;-77
2022/07/02 09:56:57;;;;;;;3.17;0.20;;;23.50;63.30;;;;;;5095493;28;20379;-77
2022/07/02 09:59:23;;;;;;;3.70;0.20;;;23.60;63.90;;;;;;5094875;28;20055;-77
2022/07/02 10:01:49;;;;;;;3.35;0.30;;;23.70;63.10;;;;;;5095005;28;20420;-77
2022/07/02 10:04:15;;;;;;;3.30;0.30;;;23.90;62.10;;;;;;5094980;28;20157;-77
2022/07/02 10:06:43;;;;;;;1.95;0.22;;;23.70;61.40;;;;;;5094867;28;20020;-77
2022/07/02 10:09:11;;;;;;;3.50;0.30;;;23.70;61.40;;;;;;5095218;28;20072;-77
2022/07/02 10:11:38;;;;;;;1.95;0.20;;;23.60;61.10;;;;;;5095392;28;20126;-76
2022/07/02 10:14:05;;;;;;;2.72;0.50;;;23.50;61.80;;;;;;5094676;28;20056;-77
2022/07/02 10:16:31;;;;;;;2.22;0.63;;;23.30;62.00;;;;;;5094909;28;20103;-77
2022/07/02 10:19:01;;;;;;;3.10;0.30;;;23.40;61.40;;;;;;5095129;28;20024;-77
2022/07/02 10:21:28;;;;;;;1.05;0.20;;;23.40;61.40;;;;;;5095088;28;20020;-76
2022/07/02 10:23:54;;;;;;;1.95;0.30;;;23.40;61.90;;;;;;5094773;28;20118;-76
2022/07/02 10:26:20;;;;;;;2.05;0.20;;;23.50;63.20;;;;;;5094781;28;20032;-77
2022/07/02 10:28:47;;;;;;;2.38;0.28;;;23.60;62.70;;;;;;5094615;28;20016;-77
2022/07/02 10:31:21;;;;;;;2.15;0.20;;;23.70;62.80;;;;;;5094524;28;20025;-77
2022/07/02 10:34:03;;;;;;;2.75;0.30;;;23.90;62.60;;;;;;5094699;28;20031;-77
2022/07/02 10:36:29;;;;;;;3.28;0.45;;;24.00;63.10;;;;;;5094760;28;20024;-77
2022/07/02 10:38:57;;;;;;;1.73;0.30;;;24.20;61.90;;;;;;5094446;28;20429;-77
2022/07/02 10:41:28;;;;;;;1.83;0.30;;;24.10;60.60;;;;;;5094431;28;20028;-77
2022/07/02 10:43:56;;;;;;;3.08;0.20;;;23.90;59.70;;;;;;5094203;28;20024;-77
2022/07/02 10:46:27;;;;;;;2.63;0.20;;;23.90;61.00;;;;;;5094421;28;20030;-77
2022/07/02 10:48:57;;;;;;;3.83;0.20;;;24.00;60.80;;;;;;5093456;28;20044;-77
2022/07/02 10:51:24;;;;;;;1.63;0.30;;;24.10;61.10;;;;;;5094441;28;20514;-77
2022/07/02 10:53:57;;;;;;;4.10;0.25;;;24.40;62.90;;;;;;5093865;28;20027;-77
2022/07/02 10:56:23;;;;;;;1.33;0.20;;;24.70;63.90;;;;;;5094095;28;20505;-78
2022/07/02 10:58:49;;;;;;;2.97;0.20;;;24.90;61.40;;;;;;5094324;28;20181;-77
2022/07/02 11:01:17;;;;;;;2.72;0.22;;;25.00;62.40;;;;;;5094230;28;20475;-77
2022/07/02 11:04:02;;;;;;;0.57;0.10;;;25.10;58.60;;;;;;5093747;28;20024;-77
2022/07/02 11:06:32;;;;;;;1.83;0.20;;;25.20;58.60;;;;;;5094084;28;20028;-77
2022/07/02 11:08:59;;;;;;;1.67;0.20;;;25.00;57.30;;;;;;5094017;28;20020;-77
2022/07/02 11:11:34;;;;;;;3.75;0.40;;;25.00;57.10;;;;;;5093771;28;20544;-77
2022/07/02 11:14:00;;;;;;;2.38;0.30;;;25.00;57.80;;;;;;5093739;28;20517;-77
2022/07/02 11:16:30;;;;;;;5.00;0.20;;;24.90;57.10;;;;;;5093627;28;20028;-78
2022/07/02 11:18:58;;;;;;;1.67;0.30;;;24.70;57.40;;;;;;5093820;28;20035;-77
2022/07/02 11:21:25;;;;;;;2.10;0.20;;;24.60;58.10;;;;;;5093604;28;20028;-77
2022/07/02 11:23:51;;;;;;;3.75;0.43;;;24.60;58.00;;;;;;5093794;28;20024;-77
2022/07/02 11:26:20;;;;;;;2.97;0.20;;;24.70;60.60;;;;;;5093574;28;20020;-77
2022/07/02 11:28:46;;;;;;;1.30;0.10;;;24.80;57.60;;;;;;5093695;28;20020;-78
2022/07/02 11:31:12;;;;;;;2.42;0.30;;;24.90;57.20;;;;;;5093510;28;20020;-77
2022/07/02 11:33:46;;;;;;;3.70;0.30;;;25.00;58.80;;;;;;5093095;28;20062;-78
2022/07/02 11:36:12;;;;;;;2.13;0.38;;;25.20;57.50;;;;;;5093399;28;20035;-77
2022/07/02 11:38:39;;;;;;;1.55;0.20;;;25.20;57.40;;;;;;5093462;28;20038;-77
2022/07/02 11:41:23;;;;;;;1.77;0.20;;;25.20;56.40;;;;;;5093461;28;20085;-77
2022/07/02 11:43:51;;;;;;;1.33;0.20;;;25.20;57.40;;;;;;5093349;28;20098;-78
2022/07/02 11:46:20;;;;;;;2.10;0.20;;;25.20;58.40;;;;;;5093436;28;20054;-77
2022/07/02 11:48:46;;;;;;;0.93;0.10;;;25.10;58.90;;;;;;5093432;28;20043;-77
2022/07/02 11:51:12;;;;;;;1.00;0.10;;;25.10;60.80;;;;;;5093117;28;20479;-77
2022/07/02 11:53:38;;;;;;;3.90;0.60;;;25.20;60.70;;;;;;5093410;28;20035;-77
2022/07/02 11:56:09;;;;;;;2.67;0.30;;;25.40;61.70;;;;;;5093508;28;20075;-78
2022/07/02 11:58:46;;;;;;;2.97;0.35;;;25.40;57.90;;;;;;5093512;28;20467;-78
2022/07/02 12:01:33;;;;;;;1.35;0.20;;;25.30;56.30;;;;;;5097518;28;20036;-78
2022/07/02 12:04:03;;;;;;;2.25;0.47;;;25.20;56.10;;;;;;5097325;28;20024;-77
2022/07/02 12:06:34;;;;;;;2.13;0.55;;;25.20;57.60;;;;;;5097564;28;20031;-77
2022/07/02 12:09:01;;;;;;;2.00;0.23;;;25.20;58.60;;;;;;5096947;28;20020;-77
2022/07/02 12:11:28;;;;;;;1.63;0.40;;;25.50;58.90;;;;;;5097468;28;20028;-78
2022/07/02 12:13:55;;;;;;;1.77;0.20;;;25.70;58.10;;;;;;5096906;28;20039;-78
2022/07/02 12:16:23;;;;;;;5.88;0.30;;;25.70;56.80;;;;;;5097165;28;20021;-76
2022/07/02 12:19:05;;;;;;;2.92;0.30;;;25.70;58.80;;;;;;5097202;28;20020;-77
2022/07/02 12:21:38;;;;;;;2.42;0.30;;;25.60;57.70;;;;;;5096937;28;20035;-78
2022/07/02 12:24:30;;;;;;;2.17;0.20;;;25.50;58.30;;;;;;5097324;28;20032;-76
2022/07/02 12:27:07;;;;;;;1.90;0.20;;;25.40;57.60;;;;;;5097090;28;20080;-76
2022/07/02 12:32:28;;;;;;;2.70;0.20;;;25.20;57.60;;;;;;5097038;28;20071;-76
2022/07/02 12:35:10;;;;;;;1.17;0.20;;;25.40;56.90;;;;;;5096650;28;20040;-77
2022/07/02 12:37:42;;;;;;;3.73;0.20;;;25.50;56.90;;;;;;5096994;28;20020;-77
2022/07/02 12:40:17;;;;;;;3.72;0.20;;;25.50;55.60;;;;;;5096584;28;20024;-76
2022/07/02 12:42:47;;;;;;;3.10;0.22;;;25.40;55.00;;;;;;5096627;28;20028;-76
2022/07/02 12:45:30;;;;;;;1.70;0.10;;;25.20;55.80;;;;;;5096860;28;20103;-76
2022/07/02 12:48:08;;;;;;;1.35;0.10;;;25.20;56.00;;;;;;5096495;28;20031;-77
2022/07/02 12:50:40;;;;;;;4.25;0.30;;;25.30;56.40;;;;;;5096259;28;20043;-76
2022/07/02 12:53:07;;;;;;;;;;;25.30;56.50;;;;;;5096523;28;20107;-76
2022/07/02 12:55:37;;;;;;;2.55;0.20;;;25.40;56.60;;;;;;5096736;28;19965;-76